Airfield :







YOU CAN JOIN US ON...

 
LOGIN :

Register | Disclaimer

   EN    FR    IT 

 









Legend :    VFR   Marginal VFR   IFR   Intensive IFR   Very Intensive IFR
Visi :
Ceiling :
>= 8 km
>= 3000ft
5 to 8 km
1000 to 3000 ft
1500m to 5 km
500 to 1000 ft
800 to 1500m
200 to 500 ft
< 800m
< 200 ft
Symbols :   Thunderstorms  Fog  Heavy snow  Heavy precipitations  Wind > 20 kt






- Airport Elevation : 133 ft
- IATA code : BED


KBED - Laurence G Hanscom Field

CURRENT METAR :
  • 221614Z 12011KT 10SM FEW010 SCT029 BKN150 17/07 A3010 RMK AO2 T01720072

EXPIRED METARs :
  • 221558Z 11012KT 10SM OVC029 17/07 A3011 RMK AO2 T01720072
  • 221551Z 09013KT 10SM FEW010 SCT029 BKN150 17/08 A3011 RMK AO2 SLP209 T01670078
  • 221525Z 09008KT 10SM BKN010 BKN140 17/09 A3011 RMK AO2 T01670094
  • 221451Z 06007KT 6SM BR OVC005 15/09 A3012 RMK AO2 SLP213 T01500094 58009
  • 221358Z 04005KT 6SM BR OVC005 12/08 A3014 RMK AO2 T01220083
  • 221351Z 04005KT 6SM BR FEW000 OVC003 12/08 A3015 RMK AO2 SLP222 BR FEW000 T01170083

TAF KBED
Valid from the 22 at 14:00 until the 23 at 12:00 UTC


221402Z 2214/2312 04003KT P6SM BKN005
FM221530 06005KT P6SM SCT005 BKN150
FM221800 08007KT P6SM OVC025
FM222100 07008KT P6SM VCSH OVC015
FM230000 08007KT 5SM -RA BR OVC008
FM230500 08004KT 3/4SM -RA BR OVC003
FM231100 25003KT 2SM -SHRA BR OVC003



MET'MAP, your aeronautical weather chart ! - Copyright ORBIFLY December 2007 - Disclaimer

ORBIFLY MET'MAP TEAM :

Programming & Development : Alexandra Zaïnal
Concept & Development : Baudouin d'Aumeries
Co-Development & Prog : Marc-Olivier Méhu
Technical & hardware support : Manuel Goepfert

Contact : metmap@orbifly.com




SOURCES & CREDITS :

   NOAA